Cloquet, MN

18:01 CDT le 30 juillet 2015 (GMT -0500)
Cloquet Carlton County | | Change Station
CLOSE
Current Station
Aéroport
Location: Cloquet,
Altitude: 1280 ft
Stations météo à proximité

Alt. 1280 ft 46.70 °N, 92.50 °W | Updated 6 minutes ago

Partiellement nuageux
Partiellement nuageux
81 ° F
Paraît 81 ° F
N
15
Vent Variable Vent de ONO
Gusts 22 mph

Aujourd'hui
Haut(e) -- | Bas -- ° F
--% Risque de précip.
Hier
Haut(e) -- | Bas -- ° F
Precip. -- pouce
5:47 AM 8:44 PM
Pleine lune, 100% visible
Pression 29.94 pouce
Visibilité 10.0 Miles terrestres
Nuages Nuages épars 7000 ft
Point de rosée 46 ° F
Humidité 30%
Précipitations 0.00 pouce
Profondeur de la couche neigeuse Non disponible.
UV 2 sur 12
Pollen 6.50 sur 12
Qualité de l'air Non disponible.
Flu Activity Non disponible.
METAR KCOQ 302255Z AUTO 29013G19KT 10SM SCT070 27/08 A2994 RMK AO2

More Conditions Fewer Conditions

Pression 29.94 pouce
Visibilité 10.0 Miles terrestres
Nuages Nuages épars 7000 ft
Point de rosée 46 ° F
Humidité 30%
Précipitations 0.00 pouce
Profondeur de la couche neigeuse Non disponible.
UV 2 sur 12
Pollen 6.50 sur 12
Qualité de l'air Non disponible.
Flu Activity Non disponible.
METAR KCOQ 302255Z AUTO 29013G19KT 10SM SCT070 27/08 A2994 RMK AO2

More Conditions Fewer Conditions

10-Day Weather Forecast

×

Almanac

Astronomie

Jul. 30, 2015 Lever Coucher
Temps réel
Crépuscule civil
Crépuscule nautique
Crépuscule astronomique
Lune
Durée de lumière visible
Longueur du jour
Tomorrow will be .
, % of the Moon is Illuminated

Extrêmes aujourd'hui

State Highs State Lows

Community

WunderPhotos

Upload Photos

1,842,532 Photos téléchargées !

WunderBlogs® & News

Nearby

Qualité de l'air

  Qualité de l'air Indice de la qualité de l'air Polluant
Not available.

Épaisseur de neige

Station Depth Altitude

Activité sismique

Ville Distance Mag. Time & Date
Minimum magnitude displayed is 2.5.

Températures des eaux côtières

Lieu Température

Stations

Stations météo à proximité

Emplacement de la station Température Refroidissement éolien Point de rosée Humidité Vent Precip. Alt. Mise à jour Type